sensor_id;sensor_type;location;lat;lon;timestamp;pressure;altitude;pressure_sealevel;temperature;humidity
22938;BME280;11634;42.734;23.298;2023-02-18T00:00:18;96146.06;;;3.58;100.00
22938;BME280;11634;42.734;23.298;2023-02-18T00:02:45;96142.31;;;3.46;100.00
22938;BME280;11634;42.734;23.298;2023-02-18T00:05:12;96131.63;;;3.37;100.00
22938;BME280;11634;42.734;23.298;2023-02-18T00:07:39;96115.91;;;3.24;100.00
22938;BME280;11634;42.734;23.298;2023-02-18T00:10:07;96135.09;;;3.36;100.00
22938;BME280;11634;42.734;23.298;2023-02-18T00:12:33;96120.22;;;3.24;100.00
22938;BME280;11634;42.734;23.298;2023-02-18T00:14:58;96122.38;;;3.15;100.00
22938;BME280;11634;42.734;23.298;2023-02-18T00:17:24;96094.38;;;2.90;100.00
22938;BME280;11634;42.734;23.298;2023-02-18T00:19:50;96114.59;;;3.16;100.00
22938;BME280;11634;42.734;23.298;2023-02-18T00:22:16;96111.38;;;3.11;100.00
22938;BME280;11634;42.734;23.298;2023-02-18T00:24:41;96113.22;;;3.09;100.00
22938;BME280;11634;42.734;23.298;2023-02-18T00:27:07;96101.66;;;3.18;100.00
22938;BME280;11634;42.734;23.298;2023-02-18T00:29:33;96077.78;;;2.97;100.00
22938;BME280;11634;42.734;23.298;2023-02-18T00:31:59;96088.94;;;2.96;100.00
22938;BME280;11634;42.734;23.298;2023-02-18T00:34:25;96073.81;;;2.90;100.00
22938;BME280;11634;42.734;23.298;2023-02-18T00:36:51;96067.63;;;2.94;100.00
22938;BME280;11634;42.734;23.298;2023-02-18T00:39:16;96062.50;;;3.13;100.00
22938;BME280;11634;42.734;23.298;2023-02-18T00:41:42;96077.06;;;3.30;100.00
22938;BME280;11634;42.734;23.298;2023-02-18T00:44:09;96077.19;;;3.46;100.00
22938;BME280;11634;42.734;23.298;2023-02-18T00:46:35;96075.97;;;3.53;100.00
22938;BME280;11634;42.734;23.298;2023-02-18T00:49:01;96085.72;;;3.46;100.00
22938;BME280;11634;42.734;23.298;2023-02-18T00:51:27;96075.97;;;3.18;100.00
22938;BME280;11634;42.734;23.298;2023-02-18T00:53:53;96074.34;;;2.78;100.00
22938;BME280;11634;42.734;23.298;2023-02-18T00:56:20;96085.59;;;2.76;100.00
22938;BME280;11634;42.734;23.298;2023-02-18T00:58:51;96083.03;;;2.58;100.00
22938;BME280;11634;42.734;23.298;2023-02-18T01:01:18;96089.53;;;2.46;100.00
22938;BME280;11634;42.734;23.298;2023-02-18T01:03:43;96082.34;;;2.34;100.00
22938;BME280;11634;42.734;23.298;2023-02-18T01:06:11;96091.53;;;2.40;100.00
22938;BME280;11634;42.734;23.298;2023-02-18T01:08:39;96079.19;;;2.28;100.00
22938;BME280;11634;42.734;23.298;2023-02-18T01:11:07;96075.22;;;2.21;100.00
22938;BME280;11634;42.734;23.298;2023-02-18T01:13:34;96064.00;;;2.04;100.00
22938;BME280;11634;42.734;23.298;2023-02-18T01:16:00;96060.84;;;1.97;100.00
22938;BME280;11634;42.734;23.298;2023-02-18T01:18:30;96068.31;;;2.03;100.00
22938;BME280;11634;42.734;23.298;2023-02-18T01:20:56;96073.75;;;1.96;100.00
22938;BME280;11634;42.734;23.298;2023-02-18T01:23:22;96059.06;;;1.79;100.00
22938;BME280;11634;42.734;23.298;2023-02-18T01:25:48;96079.22;;;1.88;100.00
22938;BME280;11634;42.734;23.298;2023-02-18T01:28:14;96051.72;;;1.70;100.00
22938;BME280;11634;42.734;23.298;2023-02-18T01:30:41;96067.00;;;1.73;100.00
22938;BME280;11634;42.734;23.298;2023-02-18T01:33:07;96067.00;;;1.73;100.00
22938;BME280;11634;42.734;23.298;2023-02-18T01:35:33;96058.66;;;1.68;100.00
22938;BME280;11634;42.734;23.298;2023-02-18T01:37:58;96065.16;;;1.56;100.00
22938;BME280;11634;42.734;23.298;2023-02-18T01:40:27;96063.13;;;1.63;100.00
22938;BME280;11634;42.734;23.298;2023-02-18T01:42:53;96068.78;;;1.71;100.00
22938;BME280;11634;42.734;23.298;2023-02-18T01:50:32;96060.00;;;1.57;100.00
22938;BME280;11634;42.734;23.298;2023-02-18T01:53:01;96084.44;;;1.65;100.00
22938;BME280;11634;42.734;23.298;2023-02-18T01:55:29;96092.13;;;1.65;100.00
22938;BME280;11634;42.734;23.298;2023-02-18T01:57:55;96076.00;;;1.62;100.00
22938;BME280;11634;42.734;23.298;2023-02-18T02:00:21;96009.75;;;1.32;100.00
22938;BME280;11634;42.734;23.298;2023-02-18T02:02:49;96070.72;;;1.66;100.00
22938;BME280;11634;42.734;23.298;2023-02-18T02:05:16;96072.31;;;1.69;100.00
22938;BME280;11634;42.734;23.298;2023-02-18T02:07:43;96054.75;;;1.60;100.00
22938;BME280;11634;42.734;23.298;2023-02-18T02:10:11;96052.72;;;1.68;100.00
22938;BME280;11634;42.734;23.298;2023-02-18T02:16:01;96061.41;;;1.84;100.00
22938;BME280;11634;42.734;23.298;2023-02-18T02:44:46;96044.38;;;2.03;100.00
22938;BME280;11634;42.734;23.298;2023-02-18T02:47:23;96045.97;;;2.05;100.00
22938;BME280;11634;42.734;23.298;2023-02-18T02:50:23;96050.78;;;2.13;100.00
22938;BME280;11634;42.734;23.298;2023-02-18T02:52:56;96057.53;;;1.95;100.00
22938;BME280;11634;42.734;23.298;2023-02-18T02:55:23;96053.75;;;2.04;100.00
22938;BME280;11634;42.734;23.298;2023-02-18T02:57:53;96069.44;;;2.16;100.00
22938;BME280;11634;42.734;23.298;2023-02-18T03:06:23;96059.84;;;2.21;100.00
22938;BME280;11634;42.734;23.298;2023-02-18T03:11:38;96048.34;;;2.10;100.00
22938;BME280;11634;42.734;23.298;2023-02-18T03:16:57;96067.22;;;2.09;100.00
22938;BME280;11634;42.734;23.298;2023-02-18T03:19:31;96082.28;;;2.16;100.00
22938;BME280;11634;42.734;23.298;2023-02-18T03:22:19;96082.03;;;2.02;100.00
22938;BME280;11634;42.734;23.298;2023-02-18T03:24:48;96024.13;;;1.56;100.00
22938;BME280;11634;42.734;23.298;2023-02-18T03:29:49;96096.09;;;1.94;100.00
22938;BME280;11634;42.734;23.298;2023-02-18T03:32:18;96099.28;;;1.99;100.00
22938;BME280;11634;42.734;23.298;2023-02-18T03:35:07;96098.09;;;1.66;100.00
22938;BME280;11634;42.734;23.298;2023-02-18T03:37:37;96104.69;;;1.50;100.00
22938;BME280;11634;42.734;23.298;2023-02-18T03:40:05;96116.75;;;1.27;100.00
22938;BME280;11634;42.734;23.298;2023-02-18T03:42:32;96110.78;;;1.26;100.00
22938;BME280;11634;42.734;23.298;2023-02-18T03:44:57;96117.00;;;1.21;100.00
22938;BME280;11634;42.734;23.298;2023-02-18T03:47:24;96099.25;;;1.15;100.00
22938;BME280;11634;42.734;23.298;2023-02-18T03:49:49;96088.50;;;1.07;100.00
22938;BME280;11634;42.734;23.298;2023-02-18T03:52:15;96106.94;;;1.15;100.00
22938;BME280;11634;42.734;23.298;2023-02-18T03:54:41;96110.09;;;1.44;100.00
22938;BME280;11634;42.734;23.298;2023-02-18T03:57:07;96099.94;;;1.63;100.00
22938;BME280;11634;42.734;23.298;2023-02-18T03:59:33;96084.97;;;1.52;100.00
22938;BME280;11634;42.734;23.298;2023-02-18T04:01:59;96096.13;;;1.72;100.00
22938;BME280;11634;42.734;23.298;2023-02-18T04:04:25;96076.25;;;1.77;100.00
22938;BME280;11634;42.734;23.298;2023-02-18T04:06:52;96081.31;;;1.79;100.00
22938;BME280;11634;42.734;23.298;2023-02-18T04:09:18;96103.06;;;1.90;100.00
22938;BME280;11634;42.734;23.298;2023-02-18T04:11:43;96083.56;;;1.86;100.00
22938;BME280;11634;42.734;23.298;2023-02-18T04:14:12;96074.19;;;1.85;100.00
22938;BME280;11634;42.734;23.298;2023-02-18T04:16:38;96100.19;;;1.98;100.00
22938;BME280;11634;42.734;23.298;2023-02-18T04:19:03;96071.75;;;1.82;100.00
22938;BME280;11634;42.734;23.298;2023-02-18T04:21:29;96081.38;;;1.97;100.00
22938;BME280;11634;42.734;23.298;2023-02-18T04:23:55;96090.16;;;1.92;100.00
22938;BME280;11634;42.734;23.298;2023-02-18T04:26:21;96085.25;;;2.07;100.00
22938;BME280;11634;42.734;23.298;2023-02-18T04:28:47;96076.19;;;1.99;100.00
22938;BME280;11634;42.734;23.298;2023-02-18T04:31:12;96075.34;;;1.98;100.00
22938;BME280;11634;42.734;23.298;2023-02-18T04:33:38;96069.63;;;1.92;100.00
22938;BME280;11634;42.734;23.298;2023-02-18T04:36:05;96094.59;;;2.08;100.00
22938;BME280;11634;42.734;23.298;2023-02-18T04:38:32;96083.31;;;2.12;100.00
22938;BME280;11634;42.734;23.298;2023-02-18T04:40:59;96085.88;;;2.12;100.00
22938;BME280;11634;42.734;23.298;2023-02-18T04:43:24;96076.41;;;2.14;100.00
22938;BME280;11634;42.734;23.298;2023-02-18T04:45:50;96091.25;;;2.26;100.00
22938;BME280;11634;42.734;23.298;2023-02-18T04:48:16;96099.94;;;2.23;100.00
22938;BME280;11634;42.734;23.298;2023-02-18T04:50:43;96081.38;;;2.37;100.00
22938;BME280;11634;42.734;23.298;2023-02-18T04:53:08;96106.41;;;2.52;100.00
22938;BME280;11634;42.734;23.298;2023-02-18T04:55:37;96090.88;;;2.35;100.00
22938;BME280;11634;42.734;23.298;2023-02-18T04:58:02;96091.78;;;2.34;100.00
22938;BME280;11634;42.734;23.298;2023-02-18T05:00:28;96105.25;;;2.39;100.00
22938;BME280;11634;42.734;23.298;2023-02-18T05:02:54;96112.66;;;2.65;100.00
22938;BME280;11634;42.734;23.298;2023-02-18T05:05:19;96080.41;;;2.77;100.00
22938;BME280;11634;42.734;23.298;2023-02-18T05:07:45;96076.81;;;3.00;100.00
22938;BME280;11634;42.734;23.298;2023-02-18T05:10:15;96110.69;;;3.26;100.00
22938;BME280;11634;42.734;23.298;2023-02-18T05:12:41;96099.28;;;3.31;100.00
22938;BME280;11634;42.734;23.298;2023-02-18T05:15:07;96093.09;;;3.35;100.00
22938;BME280;11634;42.734;23.298;2023-02-18T05:17:33;96078.22;;;3.42;100.00
22938;BME280;11634;42.734;23.298;2023-02-18T05:19:59;96083.66;;;3.36;100.00
22938;BME280;11634;42.734;23.298;2023-02-18T05:22:24;96068.97;;;3.38;100.00
22938;BME280;11634;42.734;23.298;2023-02-18T05:24:50;96086.50;;;3.30;100.00
22938;BME280;11634;42.734;23.298;2023-02-18T05:27:15;96064.88;;;3.34;100.00
22938;BME280;11634;42.734;23.298;2023-02-18T05:29:41;96059.91;;;3.31;100.00
22938;BME280;11634;42.734;23.298;2023-02-18T05:32:06;96082.38;;;3.27;100.00
22938;BME280;11634;42.734;23.298;2023-02-18T05:34:32;96096.66;;;3.15;100.00
22938;BME280;11634;42.734;23.298;2023-02-18T05:36:58;96101.75;;;3.16;100.00
22938;BME280;11634;42.734;23.298;2023-02-18T05:39:23;96098.28;;;3.17;100.00
22938;BME280;11634;42.734;23.298;2023-02-18T05:41:49;96076.47;;;3.07;100.00
22938;BME280;11634;42.734;23.298;2023-02-18T05:44:14;96083.41;;;3.24;100.00
22938;BME280;11634;42.734;23.298;2023-02-18T05:46:57;96112.66;;;3.21;100.00
22938;BME280;11634;42.734;23.298;2023-02-18T05:49:23;96103.13;;;3.23;100.00
22938;BME280;11634;42.734;23.298;2023-02-18T05:51:51;96101.94;;;3.30;100.00
22938;BME280;11634;42.734;23.298;2023-02-18T05:54:16;96111.19;;;3.34;100.00
22938;BME280;11634;42.734;23.298;2023-02-18T05:56:42;96107.97;;;3.47;100.00
22938;BME280;11634;42.734;23.298;2023-02-18T05:59:08;96112.53;;;3.42;100.00
22938;BME280;11634;42.734;23.298;2023-02-18T06:01:33;96121.63;;;3.31;100.00
22938;BME280;11634;42.734;23.298;2023-02-18T06:03:59;96067.25;;;3.38;100.00
22938;BME280;11634;42.734;23.298;2023-02-18T06:06:24;96101.44;;;3.59;100.00
22938;BME280;11634;42.734;23.298;2023-02-18T06:08:51;96101.50;;;3.57;100.00
22938;BME280;11634;42.734;23.298;2023-02-18T06:11:16;96120.09;;;3.80;100.00
22938;BME280;11634;42.734;23.298;2023-02-18T06:13:42;96089.81;;;3.85;100.00
22938;BME280;11634;42.734;23.298;2023-02-18T06:16:08;96105.03;;;4.07;100.00
22938;BME280;11634;42.734;23.298;2023-02-18T06:18:33;96117.09;;;4.23;100.00
22938;BME280;11634;42.734;23.298;2023-02-18T06:20:59;96106.25;;;4.33;100.00
22938;BME280;11634;42.734;23.298;2023-02-18T06:23:27;96085.41;;;4.38;100.00
22938;BME280;11634;42.734;23.298;2023-02-18T06:25:56;96081.16;;;4.37;100.00
22938;BME280;11634;42.734;23.298;2023-02-18T06:28:21;96067.47;;;4.36;100.00
22938;BME280;11634;42.734;23.298;2023-02-18T06:30:48;96092.50;;;4.67;100.00
22938;BME280;11634;42.734;23.298;2023-02-18T06:33:13;96102.63;;;4.87;100.00
22938;BME280;11634;42.734;23.298;2023-02-18T06:35:39;96121.00;;;4.81;100.00
22938;BME280;11634;42.734;23.298;2023-02-18T06:38:06;96078.59;;;4.86;100.00
22938;BME280;11634;42.734;23.298;2023-02-18T06:40:32;96118.78;;;5.05;100.00
22938;BME280;11634;42.734;23.298;2023-02-18T06:42:57;96110.84;;;5.25;100.00
22938;BME280;11634;42.734;23.298;2023-02-18T06:45:23;96104.34;;;5.34;100.00
22938;BME280;11634;42.734;23.298;2023-02-18T06:47:48;96100.84;;;5.50;100.00
22938;BME280;11634;42.734;23.298;2023-02-18T06:50:14;96071.66;;;5.49;100.00
22938;BME280;11634;42.734;23.298;2023-02-18T06:52:40;96080.88;;;5.84;100.00
22938;BME280;11634;42.734;23.298;2023-02-18T06:55:07;96096.38;;;6.13;98.86
22938;BME280;11634;42.734;23.298;2023-02-18T06:57:34;96080.63;;;6.18;97.16
22938;BME280;11634;42.734;23.298;2023-02-18T06:59:59;96089.97;;;6.34;93.28
22938;BME280;11634;42.734;23.298;2023-02-18T07:02:26;96094.63;;;6.43;90.40
22938;BME280;11634;42.734;23.298;2023-02-18T07:04:52;96100.41;;;6.76;88.39
22938;BME280;11634;42.734;23.298;2023-02-18T07:07:17;96097.72;;;6.91;84.03
22938;BME280;11634;42.734;23.298;2023-02-18T07:09:43;96074.53;;;6.90;83.98
22938;BME280;11634;42.734;23.298;2023-02-18T07:12:08;96093.84;;;6.98;83.49
22938;BME280;11634;42.734;23.298;2023-02-18T07:14:34;96087.47;;;6.90;83.01
22938;BME280;11634;42.734;23.298;2023-02-18T07:17:00;96096.72;;;6.94;82.72
22938;BME280;11634;42.734;23.298;2023-02-18T07:19:25;96084.63;;;7.08;82.75
22938;BME280;11634;42.734;23.298;2023-02-18T07:21:51;96068.53;;;7.03;82.52
22938;BME280;11634;42.734;23.298;2023-02-18T07:24:18;96077.75;;;7.21;80.47
22938;BME280;11634;42.734;23.298;2023-02-18T07:26:44;96082.47;;;7.28;79.51
22938;BME280;11634;42.734;23.298;2023-02-18T07:29:09;96087.94;;;7.24;77.61
22938;BME280;11634;42.734;23.298;2023-02-18T07:31:35;96098.47;;;7.35;78.31
22938;BME280;11634;42.734;23.298;2023-02-18T07:34:02;96090.97;;;7.30;78.51
22938;BME280;11634;42.734;23.298;2023-02-18T07:36:29;96095.16;;;7.73;76.75
22938;BME280;11634;42.734;23.298;2023-02-18T07:38:56;96084.72;;;7.61;75.42
22938;BME280;11634;42.734;23.298;2023-02-18T07:41:22;96090.88;;;7.98;75.59
22938;BME280;11634;42.734;23.298;2023-02-18T07:43:48;96088.94;;;8.02;75.23
22938;BME280;11634;42.734;23.298;2023-02-18T07:46:14;96066.50;;;7.62;77.21
22938;BME280;11634;42.734;23.298;2023-02-18T07:48:40;96084.63;;;7.62;81.09
22938;BME280;11634;42.734;23.298;2023-02-18T07:51:07;96092.19;;;7.39;84.24
22938;BME280;11634;42.734;23.298;2023-02-18T07:53:34;96075.59;;;7.55;84.88
22938;BME280;11634;42.734;23.298;2023-02-18T07:56:00;96089.28;;;7.83;84.73
22938;BME280;11634;42.734;23.298;2023-02-18T07:58:31;96073.25;;;7.91;81.63
22938;BME280;11634;42.734;23.298;2023-02-18T08:00:58;96076.22;;;8.11;78.02
22938;BME280;11634;42.734;23.298;2023-02-18T08:03:26;96089.72;;;8.55;74.28
22938;BME280;11634;42.734;23.298;2023-02-18T08:05:53;96084.34;;;8.82;70.80
22938;BME280;11634;42.734;23.298;2023-02-18T08:08:21;96081.91;;;9.41;66.77
22938;BME280;11634;42.734;23.298;2023-02-18T08:10:50;96050.69;;;9.54;64.03
22938;BME280;11634;42.734;23.298;2023-02-18T08:13:19;96052.22;;;9.92;60.69
22938;BME280;11634;42.734;23.298;2023-02-18T08:15:45;96037.06;;;10.09;59.20
22938;BME280;11634;42.734;23.298;2023-02-18T08:18:16;96065.41;;;10.59;57.80
22938;BME280;11634;42.734;23.298;2023-02-18T08:20:42;96056.03;;;10.56;57.01
22938;BME280;11634;42.734;23.298;2023-02-18T08:23:09;96023.03;;;10.46;56.86
22938;BME280;11634;42.734;23.298;2023-02-18T08:25:34;96052.03;;;10.63;56.83
22938;BME280;11634;42.734;23.298;2023-02-18T08:28:00;96044.06;;;10.43;56.50
22938;BME280;11634;42.734;23.298;2023-02-18T08:30:26;96036.69;;;10.26;57.13
22938;BME280;11634;42.734;23.298;2023-02-18T08:32:52;96051.53;;;10.47;56.63
22938;BME280;11634;42.734;23.298;2023-02-18T08:35:17;96055.47;;;10.53;56.69
22938;BME280;11634;42.734;23.298;2023-02-18T08:37:43;96032.72;;;10.44;56.15
22938;BME280;11634;42.734;23.298;2023-02-18T08:40:10;96005.34;;;10.28;56.76
22938;BME280;11634;42.734;23.298;2023-02-18T08:42:36;96055.28;;;10.78;56.26
22938;BME280;11634;42.734;23.298;2023-02-18T08:45:03;96032.34;;;11.04;54.97
22938;BME280;11634;42.734;23.298;2023-02-18T08:47:31;96058.28;;;11.17;54.36
22938;BME280;11634;42.734;23.298;2023-02-18T08:49:59;96059.22;;;11.16;54.80
22938;BME280;11634;42.734;23.298;2023-02-18T08:52:26;96048.91;;;11.36;55.20
22938;BME280;11634;42.734;23.298;2023-02-18T08:54:53;96064.41;;;11.38;54.79
22938;BME280;11634;42.734;23.298;2023-02-18T08:57:18;96048.34;;;11.22;55.04
22938;BME280;11634;42.734;23.298;2023-02-18T08:59:44;96053.16;;;11.48;54.62
22938;BME280;11634;42.734;23.298;2023-02-18T09:02:13;96027.81;;;11.39;54.42
22938;BME280;11634;42.734;23.298;2023-02-18T09:04:39;96039.22;;;11.49;54.10
22938;BME280;11634;42.734;23.298;2023-02-18T09:07:05;96043.47;;;11.50;53.86
22938;BME280;11634;42.734;23.298;2023-02-18T09:09:31;95996.34;;;11.20;54.15
22938;BME280;11634;42.734;23.298;2023-02-18T09:11:56;96031.84;;;11.54;53.48
22938;BME280;11634;42.734;23.298;2023-02-18T09:14:22;96020.97;;;11.27;54.45
22938;BME280;11634;42.734;23.298;2023-02-18T09:16:48;96032.34;;;11.04;54.85
22938;BME280;11634;42.734;23.298;2023-02-18T09:19:16;96038.97;;;11.30;54.46
22938;BME280;11634;42.734;23.298;2023-02-18T09:21:41;96038.97;;;11.41;55.02
22938;BME280;11634;42.734;23.298;2023-02-18T09:24:07;96031.16;;;11.52;53.65
22938;BME280;11634;42.734;23.298;2023-02-18T09:26:34;95987.91;;;11.49;53.76
22938;BME280;11634;42.734;23.298;2023-02-18T09:29:00;96025.97;;;11.94;51.63
22938;BME280;11634;42.734;23.298;2023-02-18T09:31:32;96021.97;;;12.10;50.40
22938;BME280;11634;42.734;23.298;2023-02-18T09:34:00;96007.28;;;12.30;49.61
22938;BME280;11634;42.734;23.298;2023-02-18T09:36:26;96016.19;;;12.58;48.99
22938;BME280;11634;42.734;23.298;2023-02-18T09:38:52;96011.63;;;13.01;47.73
22938;BME280;11634;42.734;23.298;2023-02-18T09:41:43;96000.63;;;13.27;46.59
22938;BME280;11634;42.734;23.298;2023-02-18T09:44:27;96020.00;;;13.55;46.11
22938;BME280;11634;42.734;23.298;2023-02-18T09:47:16;96030.88;;;13.69;45.90
22938;BME280;11634;42.734;23.298;2023-02-18T09:49:53;96024.69;;;13.70;45.71
22938;BME280;11634;42.734;23.298;2023-02-18T09:52:27;96013.81;;;13.74;45.44
22938;BME280;11634;42.734;23.298;2023-02-18T09:54:54;95980.88;;;13.44;44.83
22938;BME280;11634;42.734;23.298;2023-02-18T09:57:26;96017.00;;;13.29;45.56
22938;BME280;11634;42.734;23.298;2023-02-18T09:59:59;96013.50;;;13.49;45.47
22938;BME280;11634;42.734;23.298;2023-02-18T10:02:26;96029.47;;;13.56;45.33
22938;BME280;11634;42.734;23.298;2023-02-18T10:04:52;95987.34;;;13.49;45.77
22938;BME280;11634;42.734;23.298;2023-02-18T10:07:30;95981.00;;;13.42;45.30
22938;BME280;11634;42.734;23.298;2023-02-18T10:10:00;95984.38;;;13.72;45.32
22938;BME280;11634;42.734;23.298;2023-02-18T10:12:28;95988.69;;;14.02;45.08
22938;BME280;11634;42.734;23.298;2023-02-18T10:14:59;95990.63;;;14.37;43.98
22938;BME280;11634;42.734;23.298;2023-02-18T10:17:29;95936.72;;;14.54;42.15
22938;BME280;11634;42.734;23.298;2023-02-18T10:19:56;95957.75;;;14.80;41.82
22938;BME280;11634;42.734;23.298;2023-02-18T10:22:25;95960.13;;;14.65;41.44
22938;BME280;11634;42.734;23.298;2023-02-18T10:25:00;95947.41;;;14.79;41.00
22938;BME280;11634;42.734;23.298;2023-02-18T10:27:29;95969.63;;;14.75;40.82
22938;BME280;11634;42.734;23.298;2023-02-18T10:30:01;95970.31;;;14.68;41.28
22938;BME280;11634;42.734;23.298;2023-02-18T10:32:35;95970.41;;;14.85;41.11
22938;BME280;11634;42.734;23.298;2023-02-18T10:41:08;95951.84;;;15.05;40.95
22938;BME280;11634;42.734;23.298;2023-02-18T10:43:49;95943.41;;;15.11;40.24
22938;BME280;11634;42.734;23.298;2023-02-18T10:52:15;95914.28;;;15.14;39.98
22938;BME280;11634;42.734;23.298;2023-02-18T10:57:23;95941.19;;;15.16;39.83
22938;BME280;11634;42.734;23.298;2023-02-18T11:00:05;95936.16;;;14.96;40.06
22938;BME280;11634;42.734;23.298;2023-02-18T11:02:40;95937.44;;;14.82;40.27
22938;BME280;11634;42.734;23.298;2023-02-18T11:05:18;95937.63;;;14.72;40.41
22938;BME280;11634;42.734;23.298;2023-02-18T11:08:05;95934.31;;;14.79;40.52
22938;BME280;11634;42.734;23.298;2023-02-18T11:10:41;95933.66;;;14.58;41.18
22938;BME280;11634;42.734;23.298;2023-02-18T11:13:09;95906.03;;;14.27;41.36
22938;BME280;11634;42.734;23.298;2023-02-18T11:15:37;95911.91;;;14.48;41.73
22938;BME280;11634;42.734;23.298;2023-02-18T11:20:56;95859.88;;;14.08;41.41
22938;BME280;11634;42.734;23.298;2023-02-18T11:23:22;95903.91;;;14.50;41.78
22938;BME280;11634;42.734;23.298;2023-02-18T11:26:11;95897.13;;;14.57;41.63
22938;BME280;11634;42.734;23.298;2023-02-18T11:28:47;95896.28;;;14.66;42.00
22938;BME280;11634;42.734;23.298;2023-02-18T11:31:22;95898.50;;;14.97;41.55
22938;BME280;11634;42.734;23.298;2023-02-18T11:33:54;95879.69;;;15.01;41.69
22938;BME280;11634;42.734;23.298;2023-02-18T11:36:29;95874.63;;;15.27;41.01
22938;BME280;11634;42.734;23.298;2023-02-18T11:42:15;95873.94;;;15.25;41.27
22938;BME280;11634;42.734;23.298;2023-02-18T11:47:19;95867.72;;;15.26;43.00
22938;BME280;11634;42.734;23.298;2023-02-18T11:50:43;95850.59;;;15.31;42.33
22938;BME280;11634;42.734;23.298;2023-02-18T11:52:46;95831.16;;;14.97;42.61
22938;BME280;11634;42.734;23.298;2023-02-18T11:55:21;95855.53;;;15.34;42.46
22938;BME280;11634;42.734;23.298;2023-02-18T11:57:59;95827.66;;;15.33;42.89
22938;BME280;11634;42.734;23.298;2023-02-18T12:00:39;95844.25;;;15.51;42.47
22938;BME280;11634;42.734;23.298;2023-02-18T12:03:29;95842.50;;;15.77;42.49
22938;BME280;11634;42.734;23.298;2023-02-18T12:06:02;95841.75;;;15.84;42.26
22938;BME280;11634;42.734;23.298;2023-02-18T12:08:33;95836.41;;;15.76;42.40
22938;BME280;11634;42.734;23.298;2023-02-18T12:11:10;95834.97;;;15.82;42.80
22938;BME280;11634;42.734;23.298;2023-02-18T12:13:47;95833.34;;;15.98;42.85
22938;BME280;11634;42.734;23.298;2023-02-18T12:16:19;95830.25;;;16.02;42.88
22938;BME280;11634;42.734;23.298;2023-02-18T12:27:40;95824.22;;;16.10;43.00
22938;BME280;11634;42.734;23.298;2023-02-18T12:33:17;95793.66;;;15.84;43.42
22938;BME280;11634;42.734;23.298;2023-02-18T12:36:12;95801.00;;;15.80;43.59
22938;BME280;11634;42.734;23.298;2023-02-18T12:38:57;95775.41;;;15.99;43.19
22938;BME280;11634;42.734;23.298;2023-02-18T12:46:41;95779.28;;;16.13;43.04
22938;BME280;11634;42.734;23.298;2023-02-18T12:57:28;95766.47;;;16.68;41.71
22938;BME280;11634;42.734;23.298;2023-02-18T13:00:07;95765.44;;;16.61;40.07
22938;BME280;11634;42.734;23.298;2023-02-18T13:02:49;95757.53;;;16.53;41.48
22938;BME280;11634;42.734;23.298;2023-02-18T13:05:27;95765.31;;;16.63;41.11
22938;BME280;11634;42.734;23.298;2023-02-18T13:08:18;95764.81;;;16.67;41.25
22938;BME280;11634;42.734;23.298;2023-02-18T13:11:07;95775.50;;;16.66;41.85
22938;BME280;11634;42.734;23.298;2023-02-18T13:13:47;95743.69;;;16.43;42.33
22938;BME280;11634;42.734;23.298;2023-02-18T13:16:17;95774.34;;;16.35;42.26
22938;BME280;11634;42.734;23.298;2023-02-18T13:18:57;95767.00;;;16.46;42.52
22938;BME280;11634;42.734;23.298;2023-02-18T13:21:24;95767.47;;;16.42;42.29
22938;BME280;11634;42.734;23.298;2023-02-18T13:24:09;95788.13;;;16.37;42.04
22938;BME280;11634;42.734;23.298;2023-02-18T13:26:36;95783.13;;;16.51;42.38
22938;BME280;11634;42.734;23.298;2023-02-18T13:29:31;95776.31;;;16.33;42.22
22938;BME280;11634;42.734;23.298;2023-02-18T13:34:51;95768.41;;;16.25;42.96
22938;BME280;11634;42.734;23.298;2023-02-18T13:37:30;95777.47;;;16.13;42.81
22938;BME280;11634;42.734;23.298;2023-02-18T13:39:58;95771.34;;;16.05;42.74
22938;BME280;11634;42.734;23.298;2023-02-18T13:42:36;95770.19;;;16.07;42.94
22938;BME280;11634;42.734;23.298;2023-02-18T13:45:21;95781.91;;;16.13;42.40
22938;BME280;11634;42.734;23.298;2023-02-18T13:47:50;95759.84;;;16.06;43.29
22938;BME280;11634;42.734;23.298;2023-02-18T13:50:32;95753.66;;;15.89;43.21
22938;BME280;11634;42.734;23.298;2023-02-18T13:55:41;95762.66;;;15.87;43.06
22938;BME280;11634;42.734;23.298;2023-02-18T13:58:28;95750.47;;;15.78;42.69
22938;BME280;11634;42.734;23.298;2023-02-18T14:01:12;95774.00;;;15.88;43.27
22938;BME280;11634;42.734;23.298;2023-02-18T14:08:48;95757.25;;;15.63;43.50
22938;BME280;11634;42.734;23.298;2023-02-18T14:13:47;95755.75;;;15.61;43.71
22938;BME280;11634;42.734;23.298;2023-02-18T14:16:13;95768.22;;;15.59;43.70
22938;BME280;11634;42.734;23.298;2023-02-18T14:28:43;95769.78;;;15.52;43.79
22938;BME280;11634;42.734;23.298;2023-02-18T14:36:33;95777.06;;;15.40;44.24
22938;BME280;11634;42.734;23.298;2023-02-18T14:50:00;95763.28;;;15.38;44.84
22938;BME280;11634;42.734;23.298;2023-02-18T14:54:53;95740.25;;;15.32;44.75
22938;BME280;11634;42.734;23.298;2023-02-18T14:57:27;95750.53;;;15.26;44.89
22938;BME280;11634;42.734;23.298;2023-02-18T14:59:57;95746.97;;;15.18;44.65
22938;BME280;11634;42.734;23.298;2023-02-18T15:02:26;95739.81;;;15.20;44.82
22938;BME280;11634;42.734;23.298;2023-02-18T15:05:09;95752.13;;;15.10;45.43
22938;BME280;11634;42.734;23.298;2023-02-18T15:07:37;95761.16;;;15.07;45.64
22938;BME280;11634;42.734;23.298;2023-02-18T15:10:04;95741.19;;;14.97;45.40
22938;BME280;11634;42.734;23.298;2023-02-18T15:12:37;95764.88;;;15.05;45.68
22938;BME280;11634;42.734;23.298;2023-02-18T15:15:04;95760.22;;;14.99;45.81
22938;BME280;11634;42.734;23.298;2023-02-18T15:17:30;95765.47;;;14.99;46.03
22938;BME280;11634;42.734;23.298;2023-02-18T15:20:02;95756.31;;;14.85;45.87